sensor_id;sensor_type;location;lat;lon;timestamp;P1;durP1;ratioP1;P2;durP2;ratioP2
3465;SDS011;1747;48.884;9.160;2023-03-02T00:00:31;27.70;;;13.85;;
3465;SDS011;1747;48.884;9.160;2023-03-02T00:03:00;26.45;;;14.05;;
3465;SDS011;1747;48.884;9.160;2023-03-02T00:05:27;26.27;;;13.43;;
3465;SDS011;1747;48.884;9.160;2023-03-02T00:07:56;24.42;;;12.88;;
3465;SDS011;1747;48.884;9.160;2023-03-02T00:10:24;26.67;;;13.82;;
3465;SDS011;1747;48.884;9.160;2023-03-02T00:12:51;29.60;;;14.38;;
3465;SDS011;1747;48.884;9.160;2023-03-02T00:15:17;26.98;;;14.25;;
3465;SDS011;1747;48.884;9.160;2023-03-02T00:17:44;28.83;;;14.48;;
3465;SDS011;1747;48.884;9.160;2023-03-02T00:20:13;29.42;;;14.98;;
3465;SDS011;1747;48.884;9.160;2023-03-02T00:22:41;31.17;;;14.20;;
3465;SDS011;1747;48.884;9.160;2023-03-02T00:25:09;24.98;;;13.40;;
3465;SDS011;1747;48.884;9.160;2023-03-02T00:27:37;29.80;;;14.43;;
3465;SDS011;1747;48.884;9.160;2023-03-02T00:30:04;29.55;;;14.65;;
3465;SDS011;1747;48.884;9.160;2023-03-02T00:32:32;28.75;;;14.77;;
3465;SDS011;1747;48.884;9.160;2023-03-02T00:34:59;29.17;;;14.40;;
3465;SDS011;1747;48.884;9.160;2023-03-02T00:37:28;28.10;;;14.57;;
3465;SDS011;1747;48.884;9.160;2023-03-02T00:39:54;31.83;;;14.93;;
3465;SDS011;1747;48.884;9.160;2023-03-02T00:42:21;30.92;;;14.38;;
3465;SDS011;1747;48.884;9.160;2023-03-02T00:44:48;24.65;;;13.20;;
3465;SDS011;1747;48.884;9.160;2023-03-02T00:47:17;25.63;;;13.38;;
3465;SDS011;1747;48.884;9.160;2023-03-02T00:49:44;27.77;;;13.80;;
3465;SDS011;1747;48.884;9.160;2023-03-02T00:52:13;27.83;;;14.55;;
3465;SDS011;1747;48.884;9.160;2023-03-02T00:54:41;30.63;;;14.05;;
3465;SDS011;1747;48.884;9.160;2023-03-02T00:57:08;28.85;;;13.88;;
3465;SDS011;1747;48.884;9.160;2023-03-02T00:59:35;28.85;;;14.32;;
3465;SDS011;1747;48.884;9.160;2023-03-02T01:02:02;28.95;;;14.80;;
3465;SDS011;1747;48.884;9.160;2023-03-02T01:04:31;25.48;;;13.82;;
3465;SDS011;1747;48.884;9.160;2023-03-02T01:07:00;26.90;;;13.90;;
3465;SDS011;1747;48.884;9.160;2023-03-02T01:09:28;28.40;;;14.35;;
3465;SDS011;1747;48.884;9.160;2023-03-02T01:11:56;27.48;;;14.73;;
3465;SDS011;1747;48.884;9.160;2023-03-02T01:14:23;24.65;;;13.13;;
3465;SDS011;1747;48.884;9.160;2023-03-02T01:16:50;27.85;;;14.25;;
3465;SDS011;1747;48.884;9.160;2023-03-02T01:19:17;24.73;;;13.52;;
3465;SDS011;1747;48.884;9.160;2023-03-02T01:21:44;28.50;;;14.82;;
3465;SDS011;1747;48.884;9.160;2023-03-02T01:24:11;31.45;;;14.80;;
3465;SDS011;1747;48.884;9.160;2023-03-02T01:26:38;29.08;;;14.57;;
3465;SDS011;1747;48.884;9.160;2023-03-02T01:29:06;28.45;;;14.20;;
3465;SDS011;1747;48.884;9.160;2023-03-02T01:31:33;32.30;;;14.95;;
3465;SDS011;1747;48.884;9.160;2023-03-02T01:33:59;31.83;;;15.77;;
3465;SDS011;1747;48.884;9.160;2023-03-02T01:36:26;28.83;;;14.95;;
3465;SDS011;1747;48.884;9.160;2023-03-02T01:38:53;29.98;;;15.15;;
3465;SDS011;1747;48.884;9.160;2023-03-02T01:41:20;27.02;;;14.38;;
3465;SDS011;1747;48.884;9.160;2023-03-02T01:43:46;32.72;;;14.48;;
3465;SDS011;1747;48.884;9.160;2023-03-02T01:46:15;27.98;;;13.80;;
3465;SDS011;1747;48.884;9.160;2023-03-02T01:48:46;27.80;;;14.63;;
3465;SDS011;1747;48.884;9.160;2023-03-02T01:51:17;32.83;;;15.05;;
3465;SDS011;1747;48.884;9.160;2023-03-02T01:53:48;32.67;;;14.93;;
3465;SDS011;1747;48.884;9.160;2023-03-02T01:56:18;29.30;;;14.43;;
3465;SDS011;1747;48.884;9.160;2023-03-02T01:58:47;28.00;;;14.00;;
3465;SDS011;1747;48.884;9.160;2023-03-02T02:01:18;36.50;;;16.67;;
3465;SDS011;1747;48.884;9.160;2023-03-02T02:03:47;34.83;;;14.85;;
3465;SDS011;1747;48.884;9.160;2023-03-02T02:06:17;29.73;;;14.35;;
3465;SDS011;1747;48.884;9.160;2023-03-02T02:08:48;27.63;;;14.07;;
3465;SDS011;1747;48.884;9.160;2023-03-02T02:11:17;29.27;;;14.15;;
3465;SDS011;1747;48.884;9.160;2023-03-02T02:13:44;27.38;;;14.15;;
3465;SDS011;1747;48.884;9.160;2023-03-02T02:16:11;27.65;;;14.52;;
3465;SDS011;1747;48.884;9.160;2023-03-02T02:18:39;28.95;;;14.82;;
3465;SDS011;1747;48.884;9.160;2023-03-02T02:21:07;31.50;;;15.60;;
3465;SDS011;1747;48.884;9.160;2023-03-02T02:23:35;32.40;;;15.18;;
3465;SDS011;1747;48.884;9.160;2023-03-02T02:26:13;29.92;;;14.70;;
3465;SDS011;1747;48.884;9.160;2023-03-02T02:28:46;33.67;;;15.15;;
3465;SDS011;1747;48.884;9.160;2023-03-02T02:31:21;31.25;;;15.30;;
3465;SDS011;1747;48.884;9.160;2023-03-02T02:33:53;30.17;;;15.07;;
3465;SDS011;1747;48.884;9.160;2023-03-02T02:36:23;30.73;;;15.02;;
3465;SDS011;1747;48.884;9.160;2023-03-02T02:38:57;30.58;;;14.93;;
3465;SDS011;1747;48.884;9.160;2023-03-02T02:41:29;28.58;;;14.45;;
3465;SDS011;1747;48.884;9.160;2023-03-02T02:43:59;30.27;;;14.20;;
3465;SDS011;1747;48.884;9.160;2023-03-02T02:46:25;32.78;;;15.43;;
3465;SDS011;1747;48.884;9.160;2023-03-02T02:48:52;33.22;;;16.13;;
3465;SDS011;1747;48.884;9.160;2023-03-02T02:51:20;34.42;;;14.43;;
3465;SDS011;1747;48.884;9.160;2023-03-02T02:53:51;29.55;;;14.82;;
3465;SDS011;1747;48.884;9.160;2023-03-02T02:56:22;31.42;;;14.50;;
3465;SDS011;1747;48.884;9.160;2023-03-02T02:58:53;29.35;;;15.20;;
3465;SDS011;1747;48.884;9.160;2023-03-02T03:01:23;32.75;;;15.40;;
3465;SDS011;1747;48.884;9.160;2023-03-02T03:03:51;30.08;;;14.98;;
3465;SDS011;1747;48.884;9.160;2023-03-02T03:06:22;31.35;;;15.15;;
3465;SDS011;1747;48.884;9.160;2023-03-02T03:08:58;35.08;;;15.00;;
3465;SDS011;1747;48.884;9.160;2023-03-02T03:11:26;32.28;;;15.98;;
3465;SDS011;1747;48.884;9.160;2023-03-02T03:14:01;27.30;;;13.75;;
3465;SDS011;1747;48.884;9.160;2023-03-02T03:16:30;28.83;;;14.73;;
3465;SDS011;1747;48.884;9.160;2023-03-02T03:19:00;32.65;;;15.82;;
3465;SDS011;1747;48.884;9.160;2023-03-02T03:21:31;31.98;;;14.68;;
3465;SDS011;1747;48.884;9.160;2023-03-02T03:23:58;32.42;;;14.73;;
3465;SDS011;1747;48.884;9.160;2023-03-02T03:26:24;34.25;;;15.88;;
3465;SDS011;1747;48.884;9.160;2023-03-02T03:28:51;31.85;;;15.00;;
3465;SDS011;1747;48.884;9.160;2023-03-02T03:31:22;30.30;;;15.25;;
3465;SDS011;1747;48.884;9.160;2023-03-02T03:33:50;29.02;;;15.02;;
3465;SDS011;1747;48.884;9.160;2023-03-02T03:36:17;32.15;;;15.82;;
3465;SDS011;1747;48.884;9.160;2023-03-02T03:38:44;29.77;;;14.73;;
3465;SDS011;1747;48.884;9.160;2023-03-02T03:41:10;32.45;;;15.68;;
3465;SDS011;1747;48.884;9.160;2023-03-02T03:43:38;33.22;;;16.00;;
3465;SDS011;1747;48.884;9.160;2023-03-02T03:46:04;31.98;;;15.80;;
3465;SDS011;1747;48.884;9.160;2023-03-02T03:48:33;32.10;;;14.70;;
3465;SDS011;1747;48.884;9.160;2023-03-02T03:51:00;30.65;;;14.50;;
3465;SDS011;1747;48.884;9.160;2023-03-02T03:53:26;29.98;;;15.65;;
3465;SDS011;1747;48.884;9.160;2023-03-02T03:55:53;31.13;;;15.88;;
3465;SDS011;1747;48.884;9.160;2023-03-02T03:58:21;31.80;;;15.15;;
3465;SDS011;1747;48.884;9.160;2023-03-02T04:00:48;32.13;;;15.38;;
3465;SDS011;1747;48.884;9.160;2023-03-02T04:03:15;33.00;;;15.73;;
3465;SDS011;1747;48.884;9.160;2023-03-02T04:05:45;31.65;;;15.45;;
3465;SDS011;1747;48.884;9.160;2023-03-02T04:08:12;32.50;;;15.27;;
3465;SDS011;1747;48.884;9.160;2023-03-02T04:10:38;30.80;;;15.20;;
3465;SDS011;1747;48.884;9.160;2023-03-02T04:13:05;32.25;;;15.13;;
3465;SDS011;1747;48.884;9.160;2023-03-02T04:15:33;32.72;;;15.15;;
3465;SDS011;1747;48.884;9.160;2023-03-02T04:18:00;31.92;;;15.15;;
3465;SDS011;1747;48.884;9.160;2023-03-02T04:20:27;33.05;;;15.02;;
3465;SDS011;1747;48.884;9.160;2023-03-02T04:22:56;30.63;;;14.63;;
3465;SDS011;1747;48.884;9.160;2023-03-02T04:25:28;36.28;;;15.57;;
3465;SDS011;1747;48.884;9.160;2023-03-02T04:27:55;33.42;;;15.77;;
3465;SDS011;1747;48.884;9.160;2023-03-02T04:30:23;31.02;;;15.20;;
3465;SDS011;1747;48.884;9.160;2023-03-02T04:32:51;31.50;;;15.15;;
3465;SDS011;1747;48.884;9.160;2023-03-02T04:35:18;34.55;;;16.35;;
3465;SDS011;1747;48.884;9.160;2023-03-02T04:37:45;29.13;;;14.38;;
3465;SDS011;1747;48.884;9.160;2023-03-02T04:40:14;30.95;;;15.43;;
3465;SDS011;1747;48.884;9.160;2023-03-02T04:42:41;35.78;;;15.02;;
3465;SDS011;1747;48.884;9.160;2023-03-02T04:45:09;34.22;;;15.95;;
3465;SDS011;1747;48.884;9.160;2023-03-02T04:47:37;35.08;;;15.85;;
3465;SDS011;1747;48.884;9.160;2023-03-02T04:50:04;32.78;;;15.07;;
3465;SDS011;1747;48.884;9.160;2023-03-02T04:52:32;32.58;;;16.20;;
3465;SDS011;1747;48.884;9.160;2023-03-02T04:54:58;36.85;;;16.73;;
3465;SDS011;1747;48.884;9.160;2023-03-02T04:57:27;32.33;;;16.05;;
3465;SDS011;1747;48.884;9.160;2023-03-02T04:59:53;33.10;;;16.45;;
3465;SDS011;1747;48.884;9.160;2023-03-02T05:02:20;33.88;;;15.35;;
3465;SDS011;1747;48.884;9.160;2023-03-02T05:04:47;29.25;;;15.02;;
3465;SDS011;1747;48.884;9.160;2023-03-02T05:07:14;32.90;;;16.15;;
3465;SDS011;1747;48.884;9.160;2023-03-02T05:09:40;32.80;;;15.52;;
3465;SDS011;1747;48.884;9.160;2023-03-02T05:12:07;33.90;;;15.90;;
3465;SDS011;1747;48.884;9.160;2023-03-02T05:14:35;35.35;;;15.63;;
3465;SDS011;1747;48.884;9.160;2023-03-02T05:17:02;32.85;;;15.60;;
3465;SDS011;1747;48.884;9.160;2023-03-02T05:19:29;37.65;;;16.35;;
3465;SDS011;1747;48.884;9.160;2023-03-02T05:21:56;29.58;;;14.75;;
3465;SDS011;1747;48.884;9.160;2023-03-02T05:24:23;32.60;;;15.88;;
3465;SDS011;1747;48.884;9.160;2023-03-02T05:26:50;32.67;;;15.45;;
3465;SDS011;1747;48.884;9.160;2023-03-02T05:29:16;32.75;;;15.10;;
3465;SDS011;1747;48.884;9.160;2023-03-02T05:31:45;30.60;;;15.00;;
3465;SDS011;1747;48.884;9.160;2023-03-02T05:34:13;33.75;;;15.25;;
3465;SDS011;1747;48.884;9.160;2023-03-02T05:36:41;36.75;;;15.65;;
3465;SDS011;1747;48.884;9.160;2023-03-02T05:39:09;33.13;;;15.35;;
3465;SDS011;1747;48.884;9.160;2023-03-02T05:41:36;35.55;;;15.75;;
3465;SDS011;1747;48.884;9.160;2023-03-02T05:44:03;30.23;;;14.95;;
3465;SDS011;1747;48.884;9.160;2023-03-02T05:46:33;31.70;;;15.15;;
3465;SDS011;1747;48.884;9.160;2023-03-02T05:49:01;30.35;;;14.90;;
3465;SDS011;1747;48.884;9.160;2023-03-02T05:51:28;32.90;;;15.40;;
3465;SDS011;1747;48.884;9.160;2023-03-02T05:53:55;35.30;;;16.13;;
3465;SDS011;1747;48.884;9.160;2023-03-02T05:56:22;31.45;;;15.63;;
3465;SDS011;1747;48.884;9.160;2023-03-02T05:58:49;34.63;;;16.30;;
3465;SDS011;1747;48.884;9.160;2023-03-02T06:01:16;32.90;;;16.40;;
3465;SDS011;1747;48.884;9.160;2023-03-02T06:03:43;34.17;;;16.40;;
3465;SDS011;1747;48.884;9.160;2023-03-02T06:06:11;35.10;;;16.48;;
3465;SDS011;1747;48.884;9.160;2023-03-02T06:08:38;31.02;;;14.80;;
3465;SDS011;1747;48.884;9.160;2023-03-02T06:11:06;33.13;;;15.85;;
3465;SDS011;1747;48.884;9.160;2023-03-02T06:13:33;30.25;;;15.13;;
3465;SDS011;1747;48.884;9.160;2023-03-02T06:16:00;35.75;;;16.95;;
3465;SDS011;1747;48.884;9.160;2023-03-02T06:18:27;28.50;;;15.27;;
3465;SDS011;1747;48.884;9.160;2023-03-02T06:20:54;35.05;;;15.32;;
3465;SDS011;1747;48.884;9.160;2023-03-02T06:23:22;37.55;;;15.73;;
3465;SDS011;1747;48.884;9.160;2023-03-02T06:25:49;30.15;;;15.35;;
3465;SDS011;1747;48.884;9.160;2023-03-02T06:28:16;30.65;;;15.82;;
3465;SDS011;1747;48.884;9.160;2023-03-02T06:30:44;39.08;;;16.45;;
3465;SDS011;1747;48.884;9.160;2023-03-02T06:33:12;35.83;;;16.48;;
3465;SDS011;1747;48.884;9.160;2023-03-02T06:35:40;36.85;;;14.40;;
3465;SDS011;1747;48.884;9.160;2023-03-02T06:38:07;32.58;;;14.50;;
3465;SDS011;1747;48.884;9.160;2023-03-02T06:40:35;33.83;;;15.57;;
3465;SDS011;1747;48.884;9.160;2023-03-02T06:43:02;32.88;;;15.43;;
3465;SDS011;1747;48.884;9.160;2023-03-02T06:45:29;30.90;;;15.05;;
3465;SDS011;1747;48.884;9.160;2023-03-02T06:47:57;31.88;;;15.18;;
3465;SDS011;1747;48.884;9.160;2023-03-02T06:50:25;33.58;;;14.80;;
3465;SDS011;1747;48.884;9.160;2023-03-02T06:52:52;32.05;;;15.05;;
3465;SDS011;1747;48.884;9.160;2023-03-02T06:55:19;32.28;;;15.05;;
3465;SDS011;1747;48.884;9.160;2023-03-02T06:57:47;32.78;;;14.80;;
3465;SDS011;1747;48.884;9.160;2023-03-02T07:00:14;32.28;;;14.95;;
3465;SDS011;1747;48.884;9.160;2023-03-02T07:02:48;33.92;;;16.13;;
3465;SDS011;1747;48.884;9.160;2023-03-02T07:05:15;33.20;;;15.80;;
3465;SDS011;1747;48.884;9.160;2023-03-02T07:07:42;31.00;;;15.23;;
3465;SDS011;1747;48.884;9.160;2023-03-02T07:10:09;32.25;;;15.38;;
3465;SDS011;1747;48.884;9.160;2023-03-02T07:12:37;30.23;;;14.60;;
3465;SDS011;1747;48.884;9.160;2023-03-02T07:15:06;32.42;;;14.95;;
3465;SDS011;1747;48.884;9.160;2023-03-02T07:17:36;30.77;;;16.17;;
3465;SDS011;1747;48.884;9.160;2023-03-02T07:20:03;33.70;;;15.73;;
3465;SDS011;1747;48.884;9.160;2023-03-02T07:22:31;32.53;;;15.15;;
3465;SDS011;1747;48.884;9.160;2023-03-02T07:24:58;32.30;;;15.45;;
3465;SDS011;1747;48.884;9.160;2023-03-02T07:27:25;32.28;;;15.70;;
3465;SDS011;1747;48.884;9.160;2023-03-02T07:29:52;31.10;;;15.02;;
3465;SDS011;1747;48.884;9.160;2023-03-02T07:32:20;33.45;;;14.73;;
3465;SDS011;1747;48.884;9.160;2023-03-02T07:34:47;32.20;;;15.23;;
3465;SDS011;1747;48.884;9.160;2023-03-02T07:37:13;31.30;;;15.00;;
3465;SDS011;1747;48.884;9.160;2023-03-02T07:39:40;31.38;;;15.27;;
3465;SDS011;1747;48.884;9.160;2023-03-02T07:42:07;33.50;;;15.70;;
3465;SDS011;1747;48.884;9.160;2023-03-02T07:44:36;30.52;;;14.82;;
3465;SDS011;1747;48.884;9.160;2023-03-02T07:47:03;33.33;;;14.85;;
3465;SDS011;1747;48.884;9.160;2023-03-02T07:49:31;29.73;;;14.75;;
3465;SDS011;1747;48.884;9.160;2023-03-02T07:51:59;31.65;;;15.77;;
3465;SDS011;1747;48.884;9.160;2023-03-02T07:54:26;34.05;;;15.25;;
3465;SDS011;1747;48.884;9.160;2023-03-02T07:56:54;33.22;;;15.50;;
3465;SDS011;1747;48.884;9.160;2023-03-02T07:59:22;36.78;;;16.52;;
3465;SDS011;1747;48.884;9.160;2023-03-02T08:01:49;35.30;;;15.13;;
3465;SDS011;1747;48.884;9.160;2023-03-02T08:04:15;32.45;;;15.40;;
3465;SDS011;1747;48.884;9.160;2023-03-02T08:06:44;34.92;;;15.98;;
3465;SDS011;1747;48.884;9.160;2023-03-02T08:09:10;28.52;;;14.38;;
3465;SDS011;1747;48.884;9.160;2023-03-02T08:11:38;32.08;;;15.02;;
3465;SDS011;1747;48.884;9.160;2023-03-02T08:14:05;29.30;;;15.02;;
3465;SDS011;1747;48.884;9.160;2023-03-02T08:16:32;30.50;;;15.20;;
3465;SDS011;1747;48.884;9.160;2023-03-02T08:19:00;28.35;;;14.45;;
3465;SDS011;1747;48.884;9.160;2023-03-02T08:21:27;29.75;;;14.63;;
3465;SDS011;1747;48.884;9.160;2023-03-02T08:23:56;29.67;;;13.80;;
3465;SDS011;1747;48.884;9.160;2023-03-02T08:26:23;27.35;;;13.93;;
3465;SDS011;1747;48.884;9.160;2023-03-02T08:28:50;35.15;;;14.30;;
3465;SDS011;1747;48.884;9.160;2023-03-02T08:31:17;31.83;;;14.57;;
3465;SDS011;1747;48.884;9.160;2023-03-02T08:33:44;31.77;;;14.10;;
3465;SDS011;1747;48.884;9.160;2023-03-02T08:36:12;26.45;;;13.75;;
3465;SDS011;1747;48.884;9.160;2023-03-02T08:38:39;30.63;;;14.93;;
3465;SDS011;1747;48.884;9.160;2023-03-02T08:41:10;29.25;;;13.15;;
3465;SDS011;1747;48.884;9.160;2023-03-02T08:43:38;27.48;;;13.43;;
3465;SDS011;1747;48.884;9.160;2023-03-02T08:46:05;27.25;;;13.38;;
3465;SDS011;1747;48.884;9.160;2023-03-02T08:48:32;27.67;;;13.32;;
3465;SDS011;1747;48.884;9.160;2023-03-02T08:50:59;25.35;;;12.85;;
3465;SDS011;1747;48.884;9.160;2023-03-02T08:53:29;31.10;;;14.45;;
3465;SDS011;1747;48.884;9.160;2023-03-02T08:55:57;28.73;;;13.38;;
3465;SDS011;1747;48.884;9.160;2023-03-02T08:58:26;33.70;;;14.20;;
3465;SDS011;1747;48.884;9.160;2023-03-02T09:00:53;27.85;;;13.95;;
3465;SDS011;1747;48.884;9.160;2023-03-02T09:03:20;29.77;;;13.98;;
3465;SDS011;1747;48.884;9.160;2023-03-02T09:05:46;24.92;;;12.60;;
3465;SDS011;1747;48.884;9.160;2023-03-02T09:08:13;27.48;;;13.30;;
3465;SDS011;1747;48.884;9.160;2023-03-02T09:10:40;29.23;;;13.38;;
3465;SDS011;1747;48.884;9.160;2023-03-02T09:13:07;30.40;;;13.30;;
3465;SDS011;1747;48.884;9.160;2023-03-02T09:15:35;26.52;;;12.70;;
3465;SDS011;1747;48.884;9.160;2023-03-02T09:18:02;26.38;;;12.50;;
3465;SDS011;1747;48.884;9.160;2023-03-02T09:20:29;25.25;;;13.10;;
3465;SDS011;1747;48.884;9.160;2023-03-02T09:22:58;26.58;;;13.10;;
3465;SDS011;1747;48.884;9.160;2023-03-02T09:25:25;24.00;;;12.93;;
3465;SDS011;1747;48.884;9.160;2023-03-02T09:27:51;24.55;;;12.65;;
3465;SDS011;1747;48.884;9.160;2023-03-02T09:30:18;24.90;;;12.52;;
3465;SDS011;1747;48.884;9.160;2023-03-02T09:32:47;24.58;;;12.35;;
3465;SDS011;1747;48.884;9.160;2023-03-02T09:35:14;29.73;;;12.73;;
3465;SDS011;1747;48.884;9.160;2023-03-02T09:37:41;25.75;;;13.32;;
3465;SDS011;1747;48.884;9.160;2023-03-02T09:40:12;24.77;;;12.35;;
3465;SDS011;1747;48.884;9.160;2023-03-02T09:42:47;24.02;;;11.88;;
3465;SDS011;1747;48.884;9.160;2023-03-02T09:45:35;25.48;;;12.10;;
3465;SDS011;1747;48.884;9.160;2023-03-02T09:48:27;23.50;;;12.07;;
3465;SDS011;1747;48.884;9.160;2023-03-02T09:51:06;23.45;;;11.82;;
3465;SDS011;1747;48.884;9.160;2023-03-02T09:53:46;24.75;;;12.15;;
3465;SDS011;1747;48.884;9.160;2023-03-02T09:56:21;23.27;;;12.85;;
3465;SDS011;1747;48.884;9.160;2023-03-02T09:58:51;22.25;;;11.68;;
3465;SDS011;1747;48.884;9.160;2023-03-02T10:01:27;28.20;;;12.95;;
3465;SDS011;1747;48.884;9.160;2023-03-02T10:04:02;23.55;;;12.55;;
3465;SDS011;1747;48.884;9.160;2023-03-02T10:06:37;21.65;;;12.18;;
3465;SDS011;1747;48.884;9.160;2023-03-02T10:09:04;26.42;;;12.00;;
3465;SDS011;1747;48.884;9.160;2023-03-02T10:11:34;22.65;;;12.55;;
3465;SDS011;1747;48.884;9.160;2023-03-02T10:14:12;23.77;;;12.45;;
3465;SDS011;1747;48.884;9.160;2023-03-02T10:16:46;25.40;;;12.40;;
3465;SDS011;1747;48.884;9.160;2023-03-02T10:19:17;24.65;;;11.93;;
3465;SDS011;1747;48.884;9.160;2023-03-02T10:21:50;22.02;;;11.50;;
3465;SDS011;1747;48.884;9.160;2023-03-02T10:24:22;21.60;;;11.65;;
3465;SDS011;1747;48.884;9.160;2023-03-02T10:26:56;23.73;;;12.73;;
3465;SDS011;1747;48.884;9.160;2023-03-02T10:29:32;22.70;;;11.07;;
3465;SDS011;1747;48.884;9.160;2023-03-02T10:32:07;22.27;;;11.27;;
3465;SDS011;1747;48.884;9.160;2023-03-02T10:34:44;21.67;;;12.75;;
3465;SDS011;1747;48.884;9.160;2023-03-02T10:37:12;20.95;;;11.75;;
3465;SDS011;1747;48.884;9.160;2023-03-02T10:39:40;21.58;;;11.60;;
3465;SDS011;1747;48.884;9.160;2023-03-02T10:42:09;20.73;;;11.85;;
3465;SDS011;1747;48.884;9.160;2023-03-02T10:44:40;24.42;;;11.93;;
3465;SDS011;1747;48.884;9.160;2023-03-02T10:47:17;21.85;;;11.27;;
3465;SDS011;1747;48.884;9.160;2023-03-02T10:49:47;22.92;;;12.02;;
3465;SDS011;1747;48.884;9.160;2023-03-02T10:52:15;24.08;;;12.02;;
3465;SDS011;1747;48.884;9.160;2023-03-02T10:54:43;20.73;;;12.30;;
3465;SDS011;1747;48.884;9.160;2023-03-02T10:57:26;21.48;;;12.00;;
3465;SDS011;1747;48.884;9.160;2023-03-02T10:59:58;21.27;;;12.00;;
3465;SDS011;1747;48.884;9.160;2023-03-02T11:02:27;24.25;;;12.40;;
3465;SDS011;1747;48.884;9.160;2023-03-02T11:04:56;22.98;;;11.55;;
3465;SDS011;1747;48.884;9.160;2023-03-02T11:07:35;21.13;;;12.38;;
3465;SDS011;1747;48.884;9.160;2023-03-02T11:10:03;21.02;;;11.70;;
3465;SDS011;1747;48.884;9.160;2023-03-02T11:12:34;21.88;;;11.90;;
3465;SDS011;1747;48.884;9.160;2023-03-02T11:15:25;21.77;;;12.30;;
3465;SDS011;1747;48.884;9.160;2023-03-02T11:18:00;22.05;;;12.20;;
3465;SDS011;1747;48.884;9.160;2023-03-02T11:20:33;22.80;;;12.23;;
3465;SDS011;1747;48.884;9.160;2023-03-02T11:23:06;26.50;;;12.10;;
3465;SDS011;1747;48.884;9.160;2023-03-02T11:25:42;23.02;;;12.02;;
3465;SDS011;1747;48.884;9.160;2023-03-02T11:28:16;23.60;;;11.77;;
3465;SDS011;1747;48.884;9.160;2023-03-02T11:30:56;22.48;;;12.05;;
3465;SDS011;1747;48.884;9.160;2023-03-02T11:33:26;20.77;;;12.52;;
3465;SDS011;1747;48.884;9.160;2023-03-02T11:36:03;23.40;;;12.77;;
3465;SDS011;1747;48.884;9.160;2023-03-02T11:38:39;19.45;;;11.90;;
3465;SDS011;1747;48.884;9.160;2023-03-02T11:41:13;21.08;;;12.32;;
3465;SDS011;1747;48.884;9.160;2023-03-02T11:43:51;20.45;;;11.73;;
3465;SDS011;1747;48.884;9.160;2023-03-02T11:46:20;19.38;;;11.48;;
3465;SDS011;1747;48.884;9.160;2023-03-02T11:48:51;20.85;;;11.65;;
3465;SDS011;1747;48.884;9.160;2023-03-02T11:51:22;23.63;;;11.38;;
3465;SDS011;1747;48.884;9.160;2023-03-02T11:53:52;24.63;;;12.80;;
3465;SDS011;1747;48.884;9.160;2023-03-02T11:56:23;18.90;;;12.00;;
3465;SDS011;1747;48.884;9.160;2023-03-02T11:58:53;21.83;;;12.27;;
3465;SDS011;1747;48.884;9.160;2023-03-02T12:01:23;20.40;;;10.95;;
3465;SDS011;1747;48.884;9.160;2023-03-02T12:03:51;21.95;;;12.13;;
3465;SDS011;1747;48.884;9.160;2023-03-02T12:11:56;23.67;;;12.20;;
3465;SDS011;1747;48.884;9.160;2023-03-02T12:14:34;21.13;;;12.15;;
3465;SDS011;1747;48.884;9.160;2023-03-02T12:17:15;21.27;;;12.07;;
3465;SDS011;1747;48.884;9.160;2023-03-02T12:19:45;23.45;;;12.63;;
3465;SDS011;1747;48.884;9.160;2023-03-02T12:22:23;20.63;;;11.93;;
3465;SDS011;1747;48.884;9.160;2023-03-02T12:24:58;22.20;;;11.70;;
3465;SDS011;1747;48.884;9.160;2023-03-02T12:27:32;23.98;;;12.02;;
3465;SDS011;1747;48.884;9.160;2023-03-02T12:30:08;23.65;;;12.45;;
3465;SDS011;1747;48.884;9.160;2023-03-02T12:32:57;23.65;;;12.35;;
3465;SDS011;1747;48.884;9.160;2023-03-02T12:35:27;25.10;;;12.13;;
3465;SDS011;1747;48.884;9.160;2023-03-02T12:37:58;21.15;;;12.07;;
3465;SDS011;1747;48.884;9.160;2023-03-02T12:40:31;22.85;;;12.93;;
3465;SDS011;1747;48.884;9.160;2023-03-02T12:43:18;22.25;;;13.60;;
3465;SDS011;1747;48.884;9.160;2023-03-02T12:48:59;19.88;;;11.93;;
3465;SDS011;1747;48.884;9.160;2023-03-02T12:51:49;20.70;;;12.65;;
3465;SDS011;1747;48.884;9.160;2023-03-02T12:54:20;25.17;;;12.98;;
3465;SDS011;1747;48.884;9.160;2023-03-02T12:56:48;22.58;;;12.30;;
3465;SDS011;1747;48.884;9.160;2023-03-02T12:59:26;24.92;;;13.55;;
3465;SDS011;1747;48.884;9.160;2023-03-02T13:02:02;20.60;;;13.38;;
3465;SDS011;1747;48.884;9.160;2023-03-02T13:04:30;19.08;;;12.80;;
3465;SDS011;1747;48.884;9.160;2023-03-02T13:06:56;21.42;;;12.55;;
3465;SDS011;1747;48.884;9.160;2023-03-02T13:09:25;21.13;;;12.43;;
3465;SDS011;1747;48.884;9.160;2023-03-02T13:11:52;23.88;;;13.50;;
3465;SDS011;1747;48.884;9.160;2023-03-02T13:14:20;21.48;;;13.65;;
3465;SDS011;1747;48.884;9.160;2023-03-02T13:16:54;21.60;;;13.93;;
3465;SDS011;1747;48.884;9.160;2023-03-02T13:19:22;24.98;;;13.57;;
3465;SDS011;1747;48.884;9.160;2023-03-02T13:21:50;21.33;;;13.80;;
3465;SDS011;1747;48.884;9.160;2023-03-02T13:24:27;23.10;;;13.38;;
3465;SDS011;1747;48.884;9.160;2023-03-02T13:26:58;22.58;;;13.75;;
3465;SDS011;1747;48.884;9.160;2023-03-02T13:29:29;20.00;;;13.27;;
3465;SDS011;1747;48.884;9.160;2023-03-02T13:31:56;18.17;;;12.07;;
3465;SDS011;1747;48.884;9.160;2023-03-02T13:34:25;20.15;;;13.40;;
3465;SDS011;1747;48.884;9.160;2023-03-02T13:36:54;20.65;;;14.02;;
3465;SDS011;1747;48.884;9.160;2023-03-02T13:39:24;20.35;;;13.18;;
3465;SDS011;1747;48.884;9.160;2023-03-02T13:41:55;19.77;;;12.77;;
3465;SDS011;1747;48.884;9.160;2023-03-02T13:44:25;20.83;;;13.48;;
3465;SDS011;1747;48.884;9.160;2023-03-02T13:46:53;20.55;;;14.00;;
3465;SDS011;1747;48.884;9.160;2023-03-02T13:49:27;19.98;;;13.70;;
3465;SDS011;1747;48.884;9.160;2023-03-02T13:51:56;19.17;;;13.48;;
3465;SDS011;1747;48.884;9.160;2023-03-02T13:54:28;20.73;;;13.38;;
3465;SDS011;1747;48.884;9.160;2023-03-02T13:56:57;25.52;;;14.82;;
3465;SDS011;1747;48.884;9.160;2023-03-02T13:59:25;19.45;;;13.10;;
3465;SDS011;1747;48.884;9.160;2023-03-02T14:01:52;19.92;;;13.35;;
3465;SDS011;1747;48.884;9.160;2023-03-02T14:04:20;19.38;;;13.35;;
3465;SDS011;1747;48.884;9.160;2023-03-02T14:06:47;21.55;;;13.70;;
3465;SDS011;1747;48.884;9.160;2023-03-02T14:09:15;21.30;;;14.90;;
3465;SDS011;1747;48.884;9.160;2023-03-02T14:11:44;31.83;;;15.57;;
3465;SDS011;1747;48.884;9.160;2023-03-02T14:14:14;24.05;;;14.20;;
3465;SDS011;1747;48.884;9.160;2023-03-02T14:16:43;21.80;;;14.15;;
3465;SDS011;1747;48.884;9.160;2023-03-02T14:19:10;19.90;;;14.13;;
3465;SDS011;1747;48.884;9.160;2023-03-02T14:21:40;21.90;;;12.85;;
3465;SDS011;1747;48.884;9.160;2023-03-02T14:24:08;23.20;;;14.50;;
3465;SDS011;1747;48.884;9.160;2023-03-02T14:26:36;23.30;;;14.93;;
3465;SDS011;1747;48.884;9.160;2023-03-02T14:29:19;22.15;;;14.20;;
3465;SDS011;1747;48.884;9.160;2023-03-02T14:31:48;21.27;;;14.45;;
3465;SDS011;1747;48.884;9.160;2023-03-02T14:34:16;21.05;;;14.77;;
3465;SDS011;1747;48.884;9.160;2023-03-02T14:36:43;19.60;;;14.05;;
3465;SDS011;1747;48.884;9.160;2023-03-02T14:39:17;21.23;;;13.70;;
3465;SDS011;1747;48.884;9.160;2023-03-02T14:41:46;24.15;;;13.77;;
3465;SDS011;1747;48.884;9.160;2023-03-02T14:44:15;21.70;;;14.10;;
3465;SDS011;1747;48.884;9.160;2023-03-02T14:46:42;19.45;;;13.48;;
3465;SDS011;1747;48.884;9.160;2023-03-02T14:49:09;20.02;;;12.75;;
3465;SDS011;1747;48.884;9.160;2023-03-02T14:51:36;19.23;;;12.98;;
3465;SDS011;1747;48.884;9.160;2023-03-02T14:54:07;23.58;;;13.75;;
3465;SDS011;1747;48.884;9.160;2023-03-02T14:56:37;21.58;;;14.15;;
3465;SDS011;1747;48.884;9.160;2023-03-02T14:59:04;19.55;;;13.52;;
3465;SDS011;1747;48.884;9.160;2023-03-02T15:01:32;20.83;;;13.43;;
3465;SDS011;1747;48.884;9.160;2023-03-02T15:03:59;19.73;;;13.82;;
3465;SDS011;1747;48.884;9.160;2023-03-02T15:06:27;22.60;;;13.18;;
3465;SDS011;1747;48.884;9.160;2023-03-02T15:08:56;22.17;;;13.57;;